createdAt,value
2018-09-30T00:02:02.929Z,96.03
2018-09-30T00:04:30.045Z,96.03
2018-09-30T00:06:57.204Z,95.88
2018-09-30T00:09:28.321Z,96.17
2018-09-30T00:11:55.460Z,96.26
2018-09-30T00:14:22.620Z,96.15
2018-09-30T00:16:49.744Z,95.47
2018-09-30T00:19:16.870Z,95.91
2018-09-30T00:21:44.137Z,95.87
2018-09-30T00:24:16.948Z,96.65
2018-09-30T00:26:49.854Z,96.17
2018-09-30T00:29:17.013Z,96.35
2018-09-30T00:31:44.108Z,96.32
2018-09-30T00:34:17.122Z,96.90
2018-09-30T00:36:44.213Z,97.05
2018-09-30T00:39:11.336Z,96.88
2018-09-30T00:41:38.549Z,97.59
2018-09-30T00:44:05.737Z,97.36
2018-09-30T00:46:32.973Z,97.24
2018-09-30T00:49:00.196Z,97.24
2018-09-30T00:51:27.384Z,97.37
2018-09-30T00:53:54.488Z,97.46
2018-09-30T00:56:21.773Z,97.46
2018-09-30T00:58:48.885Z,97.78
2018-09-30T01:01:16.020Z,97.44
2018-09-30T01:03:43.280Z,97.50
2018-09-30T01:06:10.428Z,97.36
2018-09-30T01:08:37.541Z,97.13
2018-09-30T01:11:04.968Z,96.78
2018-09-30T01:13:32.100Z,97.38
2018-09-30T01:15:59.260Z,97.12
2018-09-30T01:18:26.536Z,97.38
2018-09-30T01:20:53.684Z,97.89
2018-09-30T01:23:20.936Z,97.85
2018-09-30T01:25:48.176Z,98.02
2018-09-30T01:28:15.338Z,97.51
2018-09-30T01:36:38.291Z,98.61
2018-09-30T01:39:06.552Z,98.66
2018-09-30T01:41:33.751Z,98.93
2018-09-30T01:44:01.125Z,99.52
2018-09-30T01:46:28.309Z,99.26
2018-09-30T01:48:55.539Z,98.94
2018-09-30T01:51:22.828Z,98.87
2018-09-30T01:53:50.020Z,98.73
2018-09-30T01:56:17.216Z,98.57
2018-09-30T01:58:44.448Z,98.29
2018-09-30T02:01:11.739Z,97.74
2018-09-30T02:03:38.897Z,98.32
2018-09-30T02:06:06.234Z,98.31
2018-09-30T02:08:33.528Z,98.88
2018-09-30T02:11:00.685Z,98.92
2018-09-30T02:13:27.896Z,99.35
2018-09-30T02:15:55.092Z,99.69
2018-09-30T02:18:22.294Z,99.20
2018-09-30T02:20:49.525Z,99.33
2018-09-30T02:23:16.700Z,99.50
2018-09-30T02:25:43.888Z,99.87
2018-09-30T02:28:11.164Z,99.80
2018-09-30T02:30:38.325Z,99.35
2018-09-30T02:33:05.537Z,99.36
2018-09-30T02:35:32.825Z,99.38
2018-09-30T02:37:59.985Z,99.63
2018-09-30T02:40:27.158Z,99.03
2018-09-30T02:42:54.410Z,98.81
2018-09-30T02:45:21.668Z,98.51
2018-09-30T02:47:48.817Z,98.87
2018-09-30T02:50:16.046Z,98.54
2018-09-30T02:52:43.233Z,98.79
2018-09-30T02:55:10.401Z,99.27
2018-09-30T02:57:37.779Z,99.35
2018-09-30T03:00:04.981Z,100.00
2018-09-30T03:02:32.209Z,100.00
2018-09-30T03:04:59.521Z,100.00
2018-09-30T03:07:32.446Z,99.92
2018-09-30T03:09:59.758Z,98.65
2018-09-30T03:12:26.936Z,98.86
2018-09-30T03:14:54.131Z,99.20
2018-09-30T03:17:21.349Z,99.46
2018-09-30T03:19:48.507Z,99.81
2018-09-30T03:22:15.726Z,99.30
2018-09-30T03:24:42.959Z,99.27
2018-09-30T03:27:10.155Z,99.42
2018-09-30T03:29:37.357Z,99.35
2018-09-30T03:32:04.849Z,99.67
2018-09-30T03:34:32.089Z,100.00
2018-09-30T03:36:59.271Z,100.00
2018-09-30T03:39:26.589Z,100.00
2018-09-30T03:41:53.748Z,100.00
2018-09-30T03:44:20.957Z,100.00
2018-09-30T03:46:48.402Z,100.00
2018-09-30T03:49:15.541Z,100.00
2018-09-30T03:51:42.700Z,99.78
2018-09-30T03:54:09.973Z,99.73
2018-09-30T03:56:37.159Z,100.00
2018-09-30T03:59:04.318Z,100.00
2018-09-30T04:01:31.534Z,100.00
2018-09-30T04:03:58.737Z,100.00
2018-09-30T04:06:25.954Z,100.00
2018-09-30T04:08:53.164Z,100.00
2018-09-30T04:11:20.381Z,100.00
2018-09-30T04:13:47.535Z,100.00
2018-09-30T04:16:14.841Z,100.00
2018-09-30T04:18:42.036Z,100.00
2018-09-30T04:21:09.256Z,100.00
2018-09-30T04:23:36.544Z,100.00
2018-09-30T04:26:03.712Z,100.00
2018-09-30T04:28:30.892Z,100.00
2018-09-30T04:30:58.137Z,100.00
2018-09-30T04:33:25.408Z,100.00
2018-09-30T04:35:52.589Z,100.00
2018-09-30T04:38:19.897Z,100.00
2018-09-30T04:40:47.092Z,100.00
2018-09-30T04:43:14.270Z,100.00
2018-09-30T04:45:41.513Z,100.00
2018-09-30T04:48:08.699Z,100.00
2018-09-30T04:50:35.873Z,100.00
2018-09-30T04:53:03.106Z,100.00
2018-09-30T04:55:30.284Z,100.00
2018-09-30T04:57:57.454Z,100.00
2018-09-30T05:00:24.678Z,100.00
2018-09-30T05:02:51.969Z,100.00
2018-09-30T05:05:19.161Z,100.00
2018-09-30T05:07:46.496Z,100.00
2018-09-30T05:10:13.687Z,100.00
2018-09-30T05:12:40.900Z,100.00
2018-09-30T05:15:08.180Z,100.00
2018-09-30T05:17:35.581Z,100.00
2018-09-30T05:20:02.780Z,100.00
2018-09-30T05:22:30.140Z,100.00
2018-09-30T05:24:57.311Z,100.00
2018-09-30T05:27:24.571Z,100.00
2018-09-30T05:29:51.833Z,100.00
2018-09-30T05:32:19.133Z,100.00
2018-09-30T05:34:46.400Z,100.00
2018-09-30T05:37:13.784Z,100.00
2018-09-30T05:39:40.912Z,100.00
2018-09-30T05:42:08.142Z,100.00
2018-09-30T05:44:35.349Z,100.00
2018-09-30T05:47:02.516Z,100.00
2018-09-30T05:49:29.884Z,100.00
2018-09-30T05:51:57.197Z,100.00
2018-09-30T05:54:24.368Z,100.00
2018-09-30T05:56:51.544Z,100.00
2018-09-30T05:59:18.748Z,100.00
2018-09-30T06:01:45.929Z,100.00
2018-09-30T06:04:13.113Z,100.00
2018-09-30T06:06:40.409Z,100.00
2018-09-30T06:09:10.676Z,100.00
2018-09-30T06:11:37.841Z,100.00
2018-09-30T06:14:05.372Z,100.00
2018-09-30T06:16:32.476Z,100.00
2018-09-30T06:18:59.680Z,100.00
2018-09-30T06:21:26.925Z,99.17
2018-09-30T06:23:54.172Z,96.89
2018-09-30T06:26:21.349Z,95.66
2018-09-30T06:28:48.577Z,94.73
2018-09-30T06:31:17.803Z,94.61
2018-09-30T06:33:44.973Z,93.73
2018-09-30T06:36:12.280Z,94.35
2018-09-30T06:38:39.484Z,93.04
2018-09-30T06:41:07.096Z,92.77
2018-09-30T06:43:34.388Z,89.89
2018-09-30T06:46:01.652Z,87.96
2018-09-30T06:48:29.962Z,86.15
2018-09-30T06:50:57.309Z,82.27
2018-09-30T06:53:24.564Z,82.95
2018-09-30T06:55:51.788Z,82.47
2018-09-30T06:58:19.261Z,82.00
2018-09-30T07:00:46.646Z,80.64
2018-09-30T07:03:13.789Z,77.99
2018-09-30T07:05:41.635Z,77.86
2018-09-30T07:08:08.849Z,76.37
2018-09-30T07:10:37.949Z,76.07
2018-09-30T07:13:05.380Z,76.60
2018-09-30T07:15:32.613Z,75.97
2018-09-30T07:18:00.160Z,73.84
2018-09-30T07:20:27.689Z,74.38
2018-09-30T07:22:54.912Z,71.12
2018-09-30T07:25:22.061Z,70.71
2018-09-30T07:27:49.263Z,73.51
2018-09-30T07:30:16.437Z,68.62
2018-09-30T07:32:43.586Z,66.49
2018-09-30T07:35:10.852Z,67.04
2018-09-30T07:37:38.037Z,63.84
2018-09-30T07:40:05.346Z,63.68
2018-09-30T07:42:32.634Z,62.21
2018-09-30T07:44:59.876Z,62.10
2018-09-30T07:47:27.338Z,62.76
2018-09-30T07:49:54.562Z,58.93
2018-09-30T07:52:21.782Z,59.54
2018-09-30T07:54:49.065Z,59.92
2018-09-30T07:57:16.456Z,58.90
2018-09-30T07:59:43.651Z,57.08
2018-09-30T08:02:10.822Z,58.07
2018-09-30T08:04:38.117Z,56.08
2018-09-30T08:07:05.408Z,54.42
2018-09-30T08:09:32.566Z,55.17
2018-09-30T08:11:59.918Z,55.06
2018-09-30T08:14:27.114Z,55.53
2018-09-30T08:16:54.373Z,54.53
2018-09-30T08:19:21.528Z,54.62
2018-09-30T08:21:48.716Z,52.98
2018-09-30T08:24:15.983Z,54.58
2018-09-30T08:26:43.169Z,58.75
2018-09-30T08:29:10.356Z,50.15
2018-09-30T08:31:37.529Z,50.79
2018-09-30T08:34:04.841Z,51.43
2018-09-30T08:36:32.067Z,50.02
2018-09-30T08:38:59.228Z,50.00
2018-09-30T08:41:28.252Z,46.87
2018-09-30T08:43:55.530Z,48.77
2018-09-30T08:46:23.738Z,46.87
2018-09-30T08:48:51.031Z,48.35
2018-09-30T08:51:18.245Z,48.86
2018-09-30T08:53:45.477Z,46.16
2018-09-30T08:56:12.795Z,46.66
2018-09-30T08:58:43.577Z,43.42
2018-09-30T09:01:11.916Z,44.82
2018-09-30T09:03:39.142Z,45.31
2018-09-30T09:06:06.364Z,46.43
2018-09-30T09:08:33.727Z,43.07
2018-09-30T09:11:00.921Z,45.11
2018-09-30T09:13:29.171Z,45.67
2018-09-30T09:15:56.408Z,43.67
2018-09-30T09:18:23.633Z,41.17
2018-09-30T09:20:51.818Z,42.25
2018-09-30T09:23:19.012Z,41.90
2018-09-30T09:25:46.170Z,42.30
2018-09-30T09:28:13.396Z,42.02
2018-09-30T09:30:40.794Z,39.38
2018-09-30T09:33:08.130Z,39.09
2018-09-30T09:35:35.259Z,38.61
2018-09-30T09:38:02.447Z,40.00
2018-09-30T09:40:29.607Z,40.26
2018-09-30T09:42:56.787Z,38.35
2018-09-30T09:45:24.094Z,40.98
2018-09-30T09:47:52.931Z,38.75
2018-09-30T09:50:20.163Z,36.22
2018-09-30T09:52:50.028Z,37.87
2018-09-30T09:55:17.362Z,37.19
2018-09-30T09:57:44.560Z,38.46
2018-09-30T10:00:16.321Z,34.20
2018-09-30T10:02:43.479Z,34.36
2018-09-30T10:05:10.773Z,36.66
2018-09-30T10:07:37.945Z,36.66
2018-09-30T10:10:05.149Z,34.80
2018-09-30T10:12:32.361Z,35.25
2018-09-30T10:14:59.622Z,36.49
2018-09-30T10:17:27.816Z,34.72
2018-09-30T10:19:55.068Z,33.71
2018-09-30T10:22:22.370Z,33.50
2018-09-30T10:24:49.565Z,36.71
2018-09-30T10:27:16.758Z,35.69
2018-09-30T10:29:43.948Z,33.44
2018-09-30T10:32:11.101Z,32.16
2018-09-30T10:34:38.248Z,34.26
2018-09-30T10:37:05.500Z,35.66
2018-09-30T10:39:32.774Z,35.51
2018-09-30T10:41:59.977Z,35.26
2018-09-30T10:44:27.197Z,35.07
2018-09-30T10:46:54.366Z,36.09
2018-09-30T10:49:21.632Z,33.46
2018-09-30T10:51:48.861Z,33.48
2018-09-30T10:54:19.415Z,34.54
2018-09-30T10:56:46.882Z,34.87
2018-09-30T10:59:15.017Z,32.64
2018-09-30T11:02:01.105Z,34.20
2018-09-30T11:04:37.125Z,32.12
2018-09-30T11:07:05.410Z,33.54
2018-09-30T11:09:35.049Z,33.77
2018-09-30T11:12:02.436Z,31.25
2018-09-30T11:14:29.945Z,32.39
2018-09-30T11:16:59.355Z,33.57
2018-09-30T11:19:26.530Z,31.26
2018-09-30T11:21:53.832Z,32.56
2018-09-30T11:24:21.077Z,32.99
2018-09-30T11:26:48.768Z,29.03
2018-09-30T11:29:15.947Z,31.17
2018-09-30T11:31:43.195Z,31.43
2018-09-30T11:34:10.416Z,31.60
2018-09-30T11:36:37.652Z,32.55
2018-09-30T11:39:07.856Z,29.16
2018-09-30T11:41:35.040Z,32.39
2018-09-30T11:44:02.243Z,30.88
2018-09-30T11:46:29.524Z,33.69
2018-09-30T11:48:56.825Z,34.08
2018-09-30T11:51:24.042Z,30.46
2018-09-30T11:53:51.413Z,34.81
2018-09-30T11:56:18.615Z,31.78
2018-09-30T11:58:45.781Z,30.78
2018-09-30T12:01:13.256Z,33.64
2018-09-30T12:03:40.435Z,30.92
2018-09-30T12:06:07.634Z,34.78
2018-09-30T12:08:34.969Z,31.17
2018-09-30T12:11:02.150Z,32.21
2018-09-30T12:13:29.477Z,31.96
2018-09-30T12:15:56.881Z,34.56
2018-09-30T12:18:24.120Z,33.25
2018-09-30T12:20:51.378Z,34.16
2018-09-30T12:23:18.961Z,33.63
2018-09-30T12:25:46.161Z,35.11
2018-09-30T12:28:13.308Z,36.71
2018-09-30T12:30:40.612Z,33.08
2018-09-30T12:33:07.793Z,32.48
2018-09-30T12:35:34.947Z,34.97
2018-09-30T12:38:02.157Z,33.86
2018-09-30T12:40:29.371Z,33.50
2018-09-30T12:42:56.510Z,36.47
2018-09-30T12:45:23.821Z,35.15
2018-09-30T12:47:50.995Z,34.89
2018-09-30T12:50:18.191Z,36.31
2018-09-30T12:52:45.419Z,34.06
2018-09-30T12:55:12.756Z,35.34
2018-09-30T12:57:39.941Z,35.73
2018-09-30T13:00:08.041Z,34.97
2018-09-30T13:02:36.196Z,33.80
2018-09-30T13:05:03.411Z,35.12
2018-09-30T13:07:30.614Z,33.00
2018-09-30T13:09:58.089Z,34.09
2018-09-30T13:12:25.670Z,35.81
2018-09-30T13:14:53.121Z,33.56
2018-09-30T13:17:20.564Z,34.33
2018-09-30T13:19:47.672Z,35.53
2018-09-30T13:22:14.846Z,35.69
2018-09-30T13:24:42.017Z,34.63
2018-09-30T13:27:09.205Z,33.30
2018-09-30T13:29:36.517Z,32.84
2018-09-30T13:32:03.616Z,34.17
2018-09-30T13:34:32.193Z,34.87
2018-09-30T13:36:59.424Z,34.65
2018-09-30T13:39:26.554Z,35.73
2018-09-30T13:41:53.849Z,33.77
2018-09-30T13:44:21.240Z,33.73
2018-09-30T13:46:48.416Z,33.83
2018-09-30T13:49:15.550Z,33.95
2018-09-30T13:51:42.809Z,33.62
2018-09-30T13:54:09.948Z,32.80
2018-09-30T13:56:37.162Z,33.88
2018-09-30T13:59:04.530Z,35.72
2018-09-30T14:01:31.647Z,34.50
2018-09-30T14:03:58.851Z,36.83
2018-09-30T14:06:28.784Z,34.96
2018-09-30T14:08:55.893Z,36.14
2018-09-30T14:11:23.044Z,35.58
2018-09-30T14:13:51.016Z,33.84
2018-09-30T14:16:18.379Z,33.16
2018-09-30T14:18:45.518Z,34.79
2018-09-30T14:21:12.797Z,36.36
2018-09-30T14:23:39.972Z,33.91
2018-09-30T14:26:07.172Z,35.15
2018-09-30T14:28:34.341Z,35.63
2018-09-30T14:31:01.485Z,33.61
2018-09-30T14:33:31.233Z,36.11
2018-09-30T14:35:58.508Z,36.64
2018-09-30T14:38:26.249Z,35.86
2018-09-30T14:40:53.467Z,37.13
2018-09-30T14:45:59.501Z,36.38
2018-09-30T14:48:26.703Z,36.33
2018-09-30T14:50:54.213Z,37.18
2018-09-30T14:53:21.880Z,36.14
2018-09-30T14:55:49.005Z,36.70
2018-09-30T14:58:16.172Z,37.04
2018-09-30T15:00:43.480Z,38.36
2018-09-30T15:03:10.607Z,37.37
2018-09-30T15:05:37.757Z,35.02
2018-09-30T15:08:05.201Z,38.38
2018-09-30T15:10:32.316Z,37.46
2018-09-30T15:12:59.473Z,38.87
2018-09-30T15:15:26.733Z,35.15
2018-09-30T15:17:53.859Z,37.04
2018-09-30T15:20:21.020Z,36.75
2018-09-30T15:22:48.264Z,37.32
2018-09-30T15:25:15.437Z,38.63
2018-09-30T15:27:42.790Z,37.08
2018-09-30T15:30:10.013Z,40.38
2018-09-30T15:32:37.161Z,39.14
2018-09-30T15:35:04.287Z,40.20
2018-09-30T15:37:31.512Z,41.40
2018-09-30T15:39:58.637Z,41.86
2018-09-30T15:42:25.796Z,42.62
2018-09-30T15:44:53.106Z,44.88
2018-09-30T15:47:20.380Z,45.84
2018-09-30T15:49:47.557Z,44.12
2018-09-30T15:52:14.893Z,44.58
2018-09-30T15:54:42.089Z,42.67
2018-09-30T15:57:09.285Z,45.00
2018-09-30T15:59:36.577Z,47.04
2018-09-30T16:02:03.735Z,44.35
2018-09-30T16:04:30.974Z,46.07
2018-09-30T16:06:58.834Z,47.18
2018-09-30T16:09:26.113Z,44.04
2018-09-30T16:11:53.280Z,43.11
2018-09-30T16:14:20.925Z,45.40
2018-09-30T16:16:48.125Z,45.68
2018-09-30T16:19:15.309Z,46.85
2018-09-30T16:21:42.534Z,48.96
2018-09-30T16:24:09.715Z,51.15
2018-09-30T16:26:36.904Z,52.94
2018-09-30T16:29:04.238Z,54.39
2018-09-30T16:31:31.400Z,52.53
2018-09-30T16:33:58.550Z,54.44
2018-09-30T16:36:25.836Z,55.51
2018-09-30T16:38:52.973Z,56.51
2018-09-30T16:41:20.269Z,58.52
2018-09-30T16:43:47.429Z,57.53
2018-09-30T16:46:14.655Z,58.74
2018-09-30T16:48:41.804Z,59.82
2018-09-30T16:51:09.097Z,60.51
2018-09-30T16:53:36.369Z,61.13
2018-09-30T16:56:03.932Z,61.25
2018-09-30T16:58:31.116Z,61.80
2018-09-30T17:00:58.268Z,62.81
2018-09-30T17:03:25.425Z,63.93
2018-09-30T17:05:52.764Z,64.35
2018-09-30T17:08:19.911Z,65.14
2018-09-30T17:10:47.101Z,65.67
2018-09-30T17:13:14.289Z,66.74
2018-09-30T17:15:41.461Z,66.35
2018-09-30T17:18:08.640Z,67.24
2018-09-30T17:20:35.931Z,68.30
2018-09-30T17:23:03.062Z,68.31
2018-09-30T17:25:30.238Z,67.36
2018-09-30T17:27:57.604Z,67.82
2018-09-30T17:30:24.763Z,68.17
2018-09-30T17:32:51.959Z,68.83
2018-09-30T17:35:19.179Z,69.03
2018-09-30T17:37:46.320Z,70.16
2018-09-30T17:40:13.444Z,71.35
2018-09-30T17:42:40.585Z,70.15
2018-09-30T17:45:07.837Z,69.34
2018-09-30T17:47:34.979Z,70.28
2018-09-30T17:50:02.276Z,71.40
2018-09-30T17:52:29.402Z,72.47
2018-09-30T17:54:56.525Z,71.65
2018-09-30T17:57:23.917Z,71.80
2018-09-30T17:59:51.060Z,71.95
2018-09-30T18:02:18.196Z,72.82
2018-09-30T18:04:45.388Z,73.56
2018-09-30T18:07:12.557Z,73.60
2018-09-30T18:09:39.679Z,73.69
2018-09-30T18:12:06.860Z,73.49
2018-09-30T18:14:33.969Z,74.37
2018-09-30T18:17:01.172Z,75.58
2018-09-30T18:19:28.864Z,75.22
2018-09-30T18:21:55.989Z,76.08
2018-09-30T18:24:23.116Z,75.50
2018-09-30T18:26:50.348Z,76.29
2018-09-30T18:29:17.568Z,76.38
2018-09-30T18:31:45.068Z,76.74
2018-09-30T18:34:12.340Z,77.44
2018-09-30T18:36:39.428Z,76.76
2018-09-30T18:39:07.892Z,76.89
2018-09-30T18:41:35.184Z,78.27
2018-09-30T18:44:02.776Z,77.99
2018-09-30T18:46:29.897Z,78.33
2018-09-30T18:48:57.156Z,78.79
2018-09-30T18:51:24.300Z,78.96
2018-09-30T18:53:51.907Z,78.87
2018-09-30T18:56:19.612Z,79.41
2018-09-30T18:58:47.429Z,78.97
2018-09-30T19:01:14.552Z,79.02
2018-09-30T19:03:41.700Z,79.56
2018-09-30T19:06:09.048Z,79.85
2018-09-30T19:08:36.837Z,80.07
2018-09-30T19:11:04.087Z,80.38
2018-09-30T19:13:31.232Z,80.92
2018-09-30T19:15:58.426Z,81.75
2018-09-30T19:18:25.903Z,81.57
2018-09-30T19:20:53.465Z,81.86
2018-09-30T19:23:20.564Z,81.52
2018-09-30T19:25:47.708Z,81.71
2018-09-30T19:28:14.812Z,81.77
2018-09-30T19:30:41.922Z,82.13
2018-09-30T19:33:09.143Z,82.49
2018-09-30T19:35:36.250Z,83.07
2018-09-30T19:38:03.344Z,82.97
2018-09-30T19:40:30.883Z,83.18
2018-09-30T19:42:58.049Z,82.71
2018-09-30T19:45:25.145Z,82.53
2018-09-30T19:47:52.348Z,83.64
2018-09-30T19:50:19.467Z,83.21
2018-09-30T19:52:46.570Z,83.81
2018-09-30T19:55:13.707Z,84.77
2018-09-30T19:57:40.845Z,84.68
2018-09-30T20:00:08.038Z,84.87
2018-09-30T20:02:35.195Z,84.98
2018-09-30T20:05:02.489Z,85.50
2018-09-30T20:07:29.636Z,85.40
2018-09-30T20:09:56.850Z,86.29
2018-09-30T20:12:24.052Z,85.44
2018-09-30T20:14:51.190Z,85.16
2018-09-30T20:17:18.380Z,85.24
2018-09-30T20:19:45.524Z,85.07
2018-09-30T20:22:12.681Z,85.06
2018-09-30T20:24:40.182Z,85.20
2018-09-30T20:27:07.884Z,85.83
2018-09-30T20:29:35.444Z,85.54
2018-09-30T20:32:02.624Z,85.66
2018-09-30T20:34:29.809Z,85.71
2018-09-30T20:36:57.021Z,86.61
2018-09-30T20:39:24.228Z,86.80
2018-09-30T20:41:51.372Z,87.54
2018-09-30T20:44:18.489Z,87.37
2018-09-30T20:46:45.700Z,87.96
2018-09-30T20:49:12.801Z,87.48
2018-09-30T20:51:39.931Z,87.57
2018-09-30T20:54:07.081Z,88.44
2018-09-30T20:56:34.252Z,87.90
2018-09-30T20:59:01.393Z,87.89
2018-09-30T21:01:28.575Z,88.26
2018-09-30T21:03:55.699Z,88.33
2018-09-30T21:06:25.188Z,88.57
2018-09-30T21:08:52.351Z,88.58
2018-09-30T21:11:19.491Z,88.77
2018-09-30T21:13:46.762Z,88.58
2018-09-30T21:16:14.472Z,89.25
2018-09-30T21:18:42.074Z,88.86
2018-09-30T21:21:09.240Z,88.60
2018-09-30T21:23:36.400Z,88.87
2018-09-30T21:26:03.527Z,89.38
2018-09-30T21:28:30.685Z,89.00
2018-09-30T21:30:57.919Z,89.50
2018-09-30T21:33:25.201Z,89.75
2018-09-30T21:35:52.433Z,89.73
2018-09-30T21:38:19.852Z,89.64
2018-09-30T21:40:47.095Z,90.59
2018-09-30T21:43:14.260Z,90.39
2018-09-30T21:45:41.835Z,90.23
2018-09-30T21:48:08.941Z,90.04
2018-09-30T21:50:36.070Z,90.11
2018-09-30T21:53:03.272Z,90.27
2018-09-30T21:55:30.392Z,90.70
2018-09-30T21:57:57.516Z,90.93
2018-09-30T22:00:30.760Z,91.09
2018-09-30T22:02:57.885Z,90.96
2018-09-30T22:05:25.092Z,91.16
2018-09-30T22:07:52.380Z,91.57
2018-09-30T22:10:19.520Z,92.30
2018-09-30T22:12:46.867Z,91.44
2018-09-30T22:15:14.136Z,91.62
2018-09-30T22:17:41.271Z,92.31
2018-09-30T22:20:08.419Z,91.67
2018-09-30T22:22:35.573Z,91.91
2018-09-30T22:25:02.750Z,91.91
2018-09-30T22:27:29.911Z,92.37
2018-09-30T22:29:57.089Z,92.66
2018-09-30T22:32:24.292Z,93.19
2018-09-30T22:34:51.409Z,93.07
2018-09-30T22:37:18.736Z,92.96
2018-09-30T22:39:45.853Z,92.33
2018-09-30T22:42:12.979Z,92.77
2018-09-30T22:44:40.156Z,93.31
2018-09-30T22:47:07.311Z,93.36
2018-09-30T22:49:34.449Z,92.86
2018-09-30T22:52:01.591Z,93.64
2018-09-30T22:54:28.704Z,93.78
2018-09-30T22:56:55.849Z,93.87
2018-09-30T22:59:23.031Z,94.22
2018-09-30T23:01:50.168Z,94.43
2018-09-30T23:04:17.304Z,93.87
2018-09-30T23:06:44.561Z,93.86
2018-09-30T23:09:11.682Z,93.72
2018-09-30T23:11:38.779Z,94.27
2018-09-30T23:14:06.401Z,94.99
2018-09-30T23:16:33.645Z,94.58
2018-09-30T23:19:00.772Z,95.15
2018-09-30T23:21:27.935Z,95.80
2018-09-30T23:23:55.065Z,95.36
2018-09-30T23:26:22.220Z,95.47
2018-09-30T23:28:49.377Z,95.50
2018-09-30T23:31:16.557Z,95.63
2018-09-30T23:33:43.636Z,93.36
2018-09-30T23:36:10.781Z,95.22
2018-09-30T23:38:37.936Z,95.80
2018-09-30T23:41:05.260Z,94.91
2018-09-30T23:43:32.439Z,95.02
2018-09-30T23:45:59.655Z,95.31
2018-09-30T23:48:26.813Z,92.98
2018-09-30T23:50:54.105Z,92.52
2018-09-30T23:53:21.229Z,93.39
2018-09-30T23:55:48.345Z,94.58
2018-09-30T23:58:21.296Z,94.60
